createdAt,value
2023-02-09T04:00:15.609Z,79.20
2023-02-09T04:02:46.279Z,79.10
2023-02-09T04:05:14.447Z,79.30
2023-02-09T04:07:42.607Z,79.40
2023-02-09T04:10:11.156Z,79.80
2023-02-09T04:12:38.956Z,79.70
2023-02-09T04:15:07.357Z,79.80
2023-02-09T04:17:35.181Z,80.40
2023-02-09T04:20:04.932Z,80.80
2023-02-09T04:22:33.775Z,80.60
2023-02-09T04:25:27.422Z,80.40
2023-02-09T04:27:55.316Z,80.00
2023-02-09T04:30:24.258Z,80.20
2023-02-09T04:32:52.798Z,80.30
2023-02-09T04:35:21.960Z,80.50
2023-02-09T04:37:50.832Z,80.60
2023-02-09T04:40:18.912Z,81.20
2023-02-09T04:42:46.932Z,81.10
2023-02-09T04:45:14.822Z,81.30
2023-02-09T04:47:42.619Z,82.20
2023-02-09T04:50:10.770Z,81.30
2023-02-09T04:52:39.929Z,81.70
2023-02-09T04:55:08.089Z,81.40
2023-02-09T04:57:54.624Z,81.20
2023-02-09T05:00:22.580Z,81.40
2023-02-09T05:02:50.382Z,81.30
2023-02-09T05:05:19.636Z,81.30
2023-02-09T05:07:48.904Z,81.40
2023-02-09T05:10:17.302Z,81.30
2023-02-09T05:12:45.199Z,81.10
2023-02-09T05:15:13.030Z,81.10
2023-02-09T05:17:40.905Z,81.30
2023-02-09T05:20:10.112Z,80.90
2023-02-09T05:22:38.653Z,80.80
2023-02-09T05:25:08.237Z,81.20
2023-02-09T05:27:36.249Z,81.30
2023-02-09T05:30:04.334Z,81.20
2023-02-09T05:32:32.261Z,81.40
2023-02-09T05:35:00.173Z,81.40
2023-02-09T05:37:27.992Z,81.60
2023-02-09T05:39:55.883Z,81.60
2023-02-09T05:42:27.411Z,81.90
2023-02-09T05:44:55.472Z,81.70
2023-02-09T05:47:25.473Z,81.70
2023-02-09T05:49:53.909Z,82.20
2023-02-09T05:52:22.056Z,83.00
2023-02-09T05:54:49.988Z,83.40
2023-02-09T05:57:18.448Z,83.50
2023-02-09T05:59:48.719Z,83.90
2023-02-09T06:02:16.635Z,83.90
2023-02-09T06:04:44.590Z,83.70
2023-02-09T06:07:15.539Z,83.90
2023-02-09T06:09:43.354Z,83.80
2023-02-09T06:12:11.189Z,83.90
2023-02-09T06:14:39.081Z,83.40
2023-02-09T06:17:09.394Z,83.60
2023-02-09T06:19:37.339Z,83.90
2023-02-09T06:22:05.378Z,84.00
2023-02-09T06:24:33.233Z,84.00
2023-02-09T06:27:01.545Z,83.80
2023-02-09T06:29:29.418Z,83.60
2023-02-09T06:31:59.423Z,83.70
2023-02-09T06:34:33.457Z,83.90
2023-02-09T06:37:14.296Z,83.70
2023-02-09T06:39:42.132Z,83.70
2023-02-09T06:42:10.043Z,83.90
2023-02-09T06:44:39.007Z,84.30
2023-02-09T06:47:06.915Z,84.50
2023-02-09T06:49:36.343Z,84.40
2023-02-09T06:52:04.704Z,84.50
2023-02-09T06:54:32.693Z,84.60
2023-02-09T06:57:00.718Z,84.70
2023-02-09T06:59:28.530Z,84.60
2023-02-09T07:01:56.451Z,84.90
2023-02-09T07:04:38.132Z,84.70
2023-02-09T07:07:09.257Z,85.00
2023-02-09T07:09:37.160Z,85.20
2023-02-09T07:12:12.002Z,85.40
2023-02-09T07:14:39.824Z,85.80
2023-02-09T07:17:08.062Z,86.20
2023-02-09T07:19:37.659Z,86.40
2023-02-09T07:22:08.440Z,86.60
2023-02-09T07:24:36.252Z,86.90
2023-02-09T07:27:05.333Z,86.70
2023-02-09T07:29:33.240Z,87.20
2023-02-09T07:32:02.185Z,87.40
2023-02-09T07:34:30.112Z,87.40
2023-02-09T07:36:59.357Z,87.60
2023-02-09T07:39:27.858Z,87.70
2023-02-09T07:41:57.119Z,87.70
2023-02-09T07:44:25.501Z,88.00
2023-02-09T07:46:54.432Z,88.00
2023-02-09T07:49:22.424Z,88.30
2023-02-09T07:51:51.437Z,88.50
2023-02-09T07:54:21.301Z,88.60
2023-02-09T07:56:49.158Z,88.50
2023-02-09T07:59:20.153Z,88.90
2023-02-09T08:01:49.553Z,89.10
2023-02-09T08:04:17.379Z,89.60
2023-02-09T08:06:46.639Z,90.10
2023-02-09T08:09:17.438Z,90.30
2023-02-09T08:11:49.555Z,90.50
2023-02-09T08:14:20.872Z,90.70
2023-02-09T08:16:50.710Z,90.60
2023-02-09T08:19:23.823Z,90.60
2023-02-09T08:21:52.616Z,90.70
2023-02-09T08:24:22.379Z,90.80
2023-02-09T08:26:51.608Z,90.60
2023-02-09T08:29:19.537Z,90.50
2023-02-09T08:31:48.484Z,90.70
2023-02-09T08:34:16.385Z,90.60
2023-02-09T08:36:44.217Z,90.40
2023-02-09T08:39:12.125Z,90.70
2023-02-09T08:41:39.962Z,90.80
2023-02-09T08:44:09.117Z,90.70
2023-02-09T08:46:37.423Z,90.70
2023-02-09T08:49:05.501Z,90.60
2023-02-09T08:51:37.233Z,90.60
2023-02-09T08:54:05.048Z,90.30
2023-02-09T08:56:32.892Z,90.00
2023-02-09T08:59:00.713Z,90.20
2023-02-09T09:01:30.081Z,90.30
2023-02-09T09:03:59.322Z,90.20
2023-02-09T09:06:27.435Z,90.10
2023-02-09T09:08:55.266Z,89.80
2023-02-09T09:11:23.120Z,88.90
2023-02-09T09:13:50.956Z,87.50
2023-02-09T09:16:21.161Z,86.40
2023-02-09T09:18:50.837Z,87.10
2023-02-09T09:21:20.140Z,86.90
2023-02-09T09:23:48.589Z,86.60
2023-02-09T09:26:17.347Z,86.10
2023-02-09T09:28:45.314Z,85.30
2023-02-09T09:31:19.198Z,85.40
2023-02-09T09:33:52.861Z,85.00
2023-02-09T09:36:20.916Z,85.30
2023-02-09T09:38:49.402Z,85.80
2023-02-09T09:41:25.143Z,84.80
2023-02-09T09:43:55.606Z,84.10
2023-02-09T09:46:27.974Z,84.30
2023-02-09T09:48:59.214Z,83.40
2023-02-09T09:51:35.752Z,83.70
2023-02-09T09:54:06.227Z,82.90
2023-02-09T09:56:36.249Z,83.20
2023-02-09T09:59:04.107Z,83.70
2023-02-09T10:01:33.827Z,83.10
2023-02-09T10:04:07.814Z,83.40
2023-02-09T10:06:35.792Z,82.30
2023-02-09T10:09:06.420Z,83.60
2023-02-09T10:11:39.866Z,83.60
2023-02-09T10:14:15.775Z,83.50
2023-02-09T10:16:45.654Z,83.60
2023-02-09T10:19:21.858Z,82.80
2023-02-09T10:21:50.438Z,83.10
2023-02-09T10:24:23.076Z,82.00
2023-02-09T10:27:04.964Z,82.60
2023-02-09T10:29:32.783Z,82.80
2023-02-09T10:32:06.186Z,83.10
2023-02-09T10:34:45.054Z,83.30
2023-02-09T10:37:20.903Z,82.80
2023-02-09T10:39:55.960Z,82.30
2023-02-09T10:42:28.037Z,82.20
2023-02-09T10:44:57.954Z,82.50
2023-02-09T10:47:29.631Z,82.30
2023-02-09T10:50:03.698Z,82.40
2023-02-09T10:52:36.445Z,81.50
2023-02-09T10:55:07.766Z,81.10
2023-02-09T10:57:37.722Z,82.00
2023-02-09T11:00:28.526Z,82.10
2023-02-09T11:03:01.592Z,82.70
2023-02-09T11:05:35.369Z,82.10
2023-02-09T11:08:14.964Z,81.60
2023-02-09T11:10:59.015Z,82.50
2023-02-09T11:13:27.773Z,78.60
2023-02-09T11:16:23.803Z,78.60
2023-02-09T11:19:01.288Z,78.50
2023-02-09T11:21:44.380Z,78.30
2023-02-09T11:24:26.195Z,77.90
2023-02-09T11:26:58.205Z,78.10
2023-02-09T11:29:31.194Z,78.40
2023-02-09T11:32:14.196Z,78.60
2023-02-09T11:34:53.958Z,77.60
2023-02-09T11:37:41.510Z,76.70
2023-02-09T11:40:23.433Z,76.20
2023-02-09T11:42:59.969Z,76.20
2023-02-09T11:45:33.559Z,76.40
2023-02-09T11:48:08.573Z,76.80
2023-02-09T11:50:44.250Z,77.20
2023-02-09T11:53:23.063Z,77.00
2023-02-09T11:55:56.200Z,77.40
2023-02-09T11:58:34.566Z,78.00
2023-02-09T12:01:15.453Z,78.10
2023-02-09T12:04:04.159Z,78.40
2023-02-09T12:06:39.454Z,78.30
2023-02-09T12:09:23.066Z,78.30
2023-02-09T12:12:02.404Z,79.00
2023-02-09T12:14:45.805Z,78.60
2023-02-09T12:17:16.210Z,77.50
2023-02-09T12:19:46.353Z,78.30
2023-02-09T12:22:43.729Z,78.50
2023-02-09T12:25:21.596Z,78.10
2023-02-09T12:28:14.045Z,77.80
2023-02-09T12:31:04.942Z,78.20
2023-02-09T12:33:35.578Z,78.50
2023-02-09T12:36:06.122Z,77.80
2023-02-09T12:39:04.714Z,78.00
2023-02-09T12:42:12.792Z,78.00
2023-02-09T12:44:55.677Z,77.80
2023-02-09T12:47:58.666Z,77.50
2023-02-09T12:50:47.546Z,77.60
2023-02-09T12:53:41.241Z,77.40
2023-02-09T12:56:29.831Z,77.40
2023-02-09T12:59:14.906Z,77.10
2023-02-09T13:02:19.148Z,76.30
2023-02-09T13:04:59.174Z,77.20
2023-02-09T13:07:36.633Z,77.20
2023-02-09T13:10:19.806Z,77.10
2023-02-09T13:12:53.725Z,77.10
2023-02-09T13:15:23.021Z,76.20
2023-02-09T13:18:07.737Z,75.70
2023-02-09T13:21:13.912Z,76.00
2023-02-09T13:23:54.573Z,76.10
2023-02-09T13:26:24.718Z,76.00
2023-02-09T13:29:19.215Z,75.70
2023-02-09T13:32:00.294Z,75.90
2023-02-09T13:34:35.915Z,75.40
2023-02-09T13:37:28.080Z,75.20
2023-02-09T13:40:00.692Z,74.20
2023-02-09T13:42:30.624Z,74.30
2023-02-09T13:44:59.987Z,74.20
2023-02-09T13:47:30.080Z,74.20
2023-02-09T13:50:00.719Z,73.80
2023-02-09T13:52:35.320Z,73.90
2023-02-09T13:55:13.753Z,73.60
2023-02-09T13:57:43.639Z,74.30
2023-02-09T14:00:21.921Z,75.30
2023-02-09T14:02:54.214Z,75.30
2023-02-09T14:05:31.750Z,74.70
2023-02-09T14:08:00.497Z,73.70
2023-02-09T14:10:29.867Z,74.30
2023-02-09T14:13:01.805Z,73.40
2023-02-09T14:15:56.001Z,73.60
2023-02-09T14:18:35.031Z,71.30
2023-02-09T14:21:15.524Z,71.00
2023-02-09T14:23:45.256Z,71.60
2023-02-09T14:26:23.870Z,71.80
2023-02-09T14:28:55.939Z,71.60
2023-02-09T14:31:25.992Z,71.70
2023-02-09T14:33:57.448Z,71.80
2023-02-09T14:36:33.358Z,70.90
2023-02-09T14:39:16.549Z,70.70
2023-02-09T14:41:56.491Z,71.00
2023-02-09T14:44:25.076Z,70.90
2023-02-09T14:46:54.515Z,70.70
2023-02-09T14:49:24.616Z,71.30
2023-02-09T14:52:02.094Z,68.60
2023-02-09T14:54:32.202Z,69.40
2023-02-09T14:57:03.565Z,69.90
2023-02-09T14:59:31.735Z,67.70
2023-02-09T15:01:59.641Z,68.40
2023-02-09T15:04:28.816Z,67.50
2023-02-09T15:07:04.442Z,66.50
2023-02-09T15:09:36.962Z,66.20
2023-02-09T15:12:05.805Z,65.00
2023-02-09T15:14:38.273Z,65.60
2023-02-09T15:17:17.856Z,66.10
2023-02-09T15:19:47.969Z,66.00
2023-02-09T15:22:17.127Z,65.60
2023-02-09T15:24:45.852Z,66.20
2023-02-09T15:27:23.828Z,66.30
2023-02-09T15:29:52.152Z,66.10
2023-02-09T15:32:22.248Z,66.40
2023-02-09T15:34:52.184Z,64.90
2023-02-09T15:37:23.985Z,65.60
2023-02-09T15:39:54.676Z,66.00
2023-02-09T15:42:39.896Z,66.80
2023-02-09T15:45:36.096Z,68.00
2023-02-09T15:48:04.744Z,67.50
2023-02-09T15:50:35.240Z,68.40
2023-02-09T15:53:05.872Z,68.80
2023-02-09T15:55:34.710Z,69.40
2023-02-09T15:58:02.977Z,69.90
2023-02-09T16:00:32.159Z,70.10
2023-02-09T16:03:01.481Z,69.80
2023-02-09T16:05:31.064Z,70.30
2023-02-09T16:08:00.791Z,70.30
2023-02-09T16:10:30.661Z,70.60
2023-02-09T16:12:58.579Z,70.60
2023-02-09T16:15:27.452Z,70.90
2023-02-09T16:17:55.269Z,71.80
2023-02-09T16:20:25.781Z,72.30
2023-02-09T16:22:55.527Z,72.30
2023-02-09T16:25:26.683Z,72.90
2023-02-09T16:27:56.147Z,72.90
2023-02-09T16:30:25.875Z,73.60
2023-02-09T16:32:53.860Z,73.90
2023-02-09T16:35:23.066Z,74.30
2023-02-09T16:37:52.581Z,74.70
2023-02-09T16:40:26.644Z,74.80
2023-02-09T16:42:55.891Z,75.00
2023-02-09T16:45:24.493Z,75.10
2023-02-09T16:47:54.978Z,75.30
2023-02-09T16:50:26.464Z,75.40
2023-02-09T16:52:56.288Z,75.60
2023-02-09T16:55:30.494Z,75.80
2023-02-09T16:58:01.417Z,75.70
2023-02-09T17:00:31.772Z,76.00
2023-02-09T17:03:03.704Z,75.80
2023-02-09T17:05:34.814Z,76.30
2023-02-09T17:08:04.703Z,76.20
2023-02-09T17:10:36.197Z,76.30
2023-02-09T17:13:04.632Z,76.70
2023-02-09T17:15:39.257Z,76.90
2023-02-09T17:18:09.176Z,77.20
2023-02-09T17:20:41.300Z,77.40
2023-02-09T17:23:15.001Z,77.50
2023-02-09T17:25:44.850Z,78.10
2023-02-09T17:28:13.019Z,78.00
2023-02-09T17:30:42.302Z,78.40
2023-02-09T17:33:19.266Z,78.40
2023-02-09T17:36:22.301Z,78.80
2023-02-09T17:38:36.838Z,79.10
2023-02-09T17:41:13.058Z,79.30
2023-02-09T17:43:40.951Z,79.90
2023-02-09T17:46:11.333Z,79.90
2023-02-09T17:48:39.441Z,80.40
2023-02-09T17:51:09.566Z,80.80
2023-02-09T17:53:38.016Z,81.40
2023-02-09T17:56:08.610Z,81.80
2023-02-09T17:58:36.466Z,81.90
2023-02-09T18:01:14.302Z,82.10
2023-02-09T18:03:42.116Z,82.20
2023-02-09T18:06:11.405Z,82.70
2023-02-09T18:08:39.249Z,82.90
2023-02-09T18:11:13.686Z,83.60
2023-02-09T18:13:41.571Z,83.70
2023-02-09T18:16:10.078Z,83.20
2023-02-09T18:18:38.478Z,83.20
2023-02-09T18:21:06.663Z,82.90
2023-02-09T18:23:34.460Z,82.80
2023-02-09T18:26:02.601Z,83.20
2023-02-09T18:28:32.123Z,83.30
2023-02-09T18:31:00.086Z,83.30
2023-02-09T18:33:28.009Z,83.20
2023-02-09T18:35:55.876Z,83.50
2023-02-09T18:38:23.701Z,83.70
2023-02-09T18:40:53.159Z,84.00
2023-02-09T18:43:20.975Z,84.40
2023-02-09T18:45:50.118Z,84.50
2023-02-09T18:48:17.980Z,84.50
2023-02-09T18:50:45.789Z,84.70
2023-02-09T18:53:15.524Z,84.90
2023-02-09T18:55:43.409Z,85.00
2023-02-09T18:58:12.804Z,85.60
2023-02-09T19:00:40.635Z,85.30
2023-02-09T19:03:11.369Z,85.40
2023-02-09T19:05:39.271Z,85.20
2023-02-09T19:08:08.032Z,85.60
2023-02-09T19:10:36.044Z,85.80
2023-02-09T19:13:04.553Z,86.00
2023-02-09T19:15:33.304Z,86.00
2023-02-09T19:18:01.251Z,85.90
2023-02-09T19:20:33.907Z,86.20
2023-02-09T19:23:02.433Z,86.40
2023-02-09T19:25:31.385Z,86.70
2023-02-09T19:27:59.229Z,86.70
2023-02-09T19:30:28.508Z,86.80
2023-02-09T19:32:58.615Z,86.60
2023-02-09T19:35:29.108Z,86.70
2023-02-09T19:37:59.094Z,86.90
2023-02-09T19:40:36.257Z,86.90
2023-02-09T19:43:04.847Z,86.80
2023-02-09T19:45:37.267Z,86.80
2023-02-09T19:48:06.178Z,86.90
2023-02-09T19:50:34.360Z,87.10
2023-02-09T19:53:03.730Z,87.30
2023-02-09T19:55:31.725Z,87.30
2023-02-09T19:57:59.556Z,87.00
2023-02-09T20:00:27.550Z,86.90
2023-02-09T20:02:55.485Z,86.80
2023-02-09T20:05:23.334Z,86.70
2023-02-09T20:07:53.543Z,86.80
2023-02-09T20:10:23.937Z,86.80
2023-02-09T20:12:52.170Z,87.20
2023-02-09T20:15:20.079Z,87.60
2023-02-09T20:20:20.857Z,87.70
2023-02-09T20:22:50.132Z,87.80
2023-02-09T20:25:18.797Z,87.90
2023-02-09T20:27:50.629Z,88.00
2023-02-09T20:30:19.221Z,88.00
2023-02-09T20:32:47.280Z,88.10
2023-02-09T20:35:15.138Z,87.60
2023-02-09T20:37:43.185Z,88.40
2023-02-09T20:40:12.123Z,87.50
2023-02-09T20:42:57.544Z,87.30
2023-02-09T20:45:44.119Z,87.20
2023-02-09T20:48:11.990Z,87.10
2023-02-09T20:50:39.860Z,87.10
2023-02-09T20:53:07.784Z,87.20
2023-02-09T20:55:35.596Z,87.00
2023-02-09T20:58:03.530Z,87.10
2023-02-09T21:00:32.730Z,87.50
2023-02-09T21:03:00.631Z,88.00
2023-02-09T21:05:28.658Z,88.20
2023-02-09T21:07:56.822Z,88.20
2023-02-09T21:10:24.818Z,88.70
2023-02-09T21:12:52.915Z,88.50
2023-02-09T21:15:20.831Z,88.60
2023-02-09T21:17:51.557Z,88.80
2023-02-09T21:20:19.533Z,88.70
2023-02-09T21:22:47.399Z,88.40
2023-02-09T21:25:15.248Z,88.40
2023-02-09T21:27:43.078Z,88.60
2023-02-09T21:30:12.132Z,88.70
2023-02-09T21:32:40.049Z,88.90
2023-02-09T21:35:10.347Z,89.30
2023-02-09T21:37:39.258Z,89.50
2023-02-09T21:40:07.747Z,89.80
2023-02-09T21:42:36.875Z,90.20
2023-02-09T21:45:06.339Z,90.40
2023-02-09T21:47:37.777Z,90.60
2023-02-09T21:50:06.737Z,90.70
2023-02-09T21:52:36.121Z,90.80
2023-02-09T21:55:04.954Z,91.00
2023-02-09T21:57:32.956Z,91.10
2023-02-09T22:00:05.277Z,91.30
2023-02-09T22:02:33.108Z,91.50
2023-02-09T22:05:01.124Z,91.60
2023-02-09T22:07:29.105Z,91.60
2023-02-09T22:09:58.544Z,91.70
2023-02-09T22:12:26.532Z,91.80
2023-02-09T22:14:54.460Z,91.50
2023-02-09T22:17:22.377Z,91.50
2023-02-09T22:19:50.257Z,91.50
2023-02-09T22:22:18.052Z,91.50
2023-02-09T22:24:46.045Z,91.40
2023-02-09T22:27:15.255Z,91.40
2023-02-09T22:29:44.182Z,91.70
2023-02-09T22:32:12.014Z,91.90
2023-02-09T22:34:39.985Z,91.90
2023-02-09T22:37:07.899Z,92.40
2023-02-09T22:39:35.744Z,92.10
2023-02-09T22:42:03.705Z,92.10
2023-02-09T22:44:33.397Z,92.20
2023-02-09T22:47:01.409Z,92.40
2023-02-09T22:49:29.342Z,92.60
2023-02-09T22:51:57.201Z,92.80
2023-02-09T22:54:25.038Z,92.90
2023-02-09T22:56:53.092Z,93.00
2023-02-09T22:59:21.021Z,93.00
